AF1030 / 9A-BTE 7700 Squawk Report (13th of June, 2018)

Aircraft F100 Reg No. 9A-BTE Age 25 years old
Model F-100 Jet engines 2 First flight 10-09-92
Registered 21-12-04 Rollout 09-92 Delivered 10-10-92
Construction No. 11416 Line No. N/A Series N/A
ADSHEX 501D7D Airline name Trade Air Owner Trade Air
Airfield based Zagreb-Pleso~ ~9A First tracked 2011-05-04 13:44:04

Flight history for 9A-BTE

Route Flight No Date Playback
St Jacques (RNS) - Schiphol (AMS) AF1030 2018-06-13 09:08:00
Blagnac (TLS) - St Jacques (RNS) A53121 2018-06-13 07:24:00
???? N/A 2018-06-13 06:28:00
Provence (MRS) - St Jacques (RNS) A53177 2018-06-13 04:38:00
St Jacques (RNS) - Provence (MRS) A53176 2018-06-12 19:01:00
Schiphol (AMS) - St Jacques (RNS) AF1031 2018-06-12 16:35:00
St Jacques (RNS) - Schiphol (AMS) AF1128 2018-06-12 15:26:00
Schiphol (AMS) - St Jacques (RNS) AF1129 2018-06-12 11:28:00
St Jacques (RNS) - Schiphol (AMS) AF1030 2018-06-12 10:18:00
Blagnac (TLS) - St Jacques (RNS) A53121 2018-06-12 07:27:00
???? N/A 2018-06-12 05:37:00
Provence (MRS) - St Jacques (RNS) A53177 2018-06-11 22:35:00
St Jacques (RNS) - Provence (MRS) A53176 2018-06-11 20:17:00
Schiphol (AMS) - St Jacques (RNS) AF1031 2018-06-11 16:50:00
Auvergne (CFE) - Schiphol (AMS) AF1556 2018-06-11 15:38:00
Schiphol (AMS) - Auvergne (CFE) AF1557 2018-06-11 13:38:00
St Jacques (RNS) - Schiphol (AMS) AF1030 2018-06-11 11:23:00
Rochester (RST) - Minneapolis St Paul Intl (MSP) AF2347 2018-06-11 09:18:00
Auvergne (CFE) - Schiphol (AMS) AF1556 2018-06-10 14:41:00
Schiphol (AMS) - Auvergne (CFE) AF1557 2018-06-10 11:38:00
Time Lat Lon Altitude Heading Speed Vertical Rate
2018-06-13 09:07:08 GMT 49.048462 2.482693 850 84 144 -1152
2018-06-13 09:07:03 GMT 49.048275 2.479441 925 84 145 -896
2018-06-13 09:06:56 GMT 49.047951 2.472430 1,000 83 150 -704
2018-06-13 09:06:49 GMT 49.047253 2.464335 1,125 84 153 -640
2018-06-13 09:06:45 GMT 49.046906 2.460233 1,150 83 159 -896
2018-06-13 09:06:35 GMT 49.046219 2.448754 1,300 83 164 -896
2018-06-13 09:06:31 GMT 49.045715 2.442868 1,375 84 165 -896
2018-06-13 09:06:26 GMT 49.045528 2.438748 1,425 84 167 -896
2018-06-13 09:06:22 GMT 49.045017 2.433110 1,500 84 167 -896
2018-06-13 09:06:14 GMT 49.044506 2.424148 1,600 83 167 -960
2018-06-13 09:06:11 GMT 49.044178 2.419522 1,675 84 167 -896
2018-06-13 09:06:08 GMT 49.043839 2.415584 1,725 84 167 -896
2018-06-13 09:06:05 GMT 49.043839 2.413189 1,750 83 168 -960
2018-06-13 09:06:01 GMT 49.043480 2.408752 1,825 84 168 -1024
2018-06-13 09:05:57 GMT 49.043152 2.403752 1,875 83 168 -960
2018-06-13 09:05:53 GMT 49.042782 2.398272 1,950 83 168 -960
2018-06-13 09:05:49 GMT 49.042458 2.395020 2,000 83 168 -960
2018-06-13 09:05:43 GMT 49.041946 2.387430 2,150 84 168 -896
2018-06-13 09:05:39 GMT 49.041595 2.383470 2,200 83 167 -896
2018-06-13 09:05:36 GMT 49.041431 2.379407 2,200 83 168 -960
2018-06-13 09:05:30 GMT 49.040920 2.372830 2,300 83 167 -896
2018-06-13 09:05:27 GMT 49.040546 2.368060 2,350 83 167 -896
2018-06-13 09:05:22 GMT 49.040222 2.363258 2,450 83 167 -896
2018-06-13 09:05:19 GMT 49.039856 2.358962 2,475 83 168 -896
2018-06-13 09:05:11 GMT 49.039337 2.349701 2,575 84 168 -896
2018-06-13 09:05:08 GMT 49.039200 2.346954 2,625 83 168 -896
2018-06-13 09:04:58 GMT 49.038162 2.334383 2,775 83 169 -960
2018-06-13 09:04:54 GMT 49.037800 2.329246 2,950 83 170 -960
2018-06-13 09:04:48 GMT 49.037292 2.322059 2,950 83 170 -1024
2018-06-13 09:04:44 GMT 49.036972 2.317763 3,075 83 169 -1024
2018-06-13 09:04:39 GMT 49.036606 2.312059 3,075 83 169 -1024
2018-06-13 09:04:34 GMT 49.036079 2.305539 3,175 83 170 -960
2018-06-13 09:04:28 GMT 49.035568 2.297805 3,275 84 170 -960
2018-06-13 09:04:23 GMT 49.035233 2.292833 3,350 83 171 -960
2018-06-13 09:04:16 GMT 49.034542 2.284072 3,600 83 171 -960
2018-06-13 09:04:13 GMT 49.034405 2.280675 3,600 83 171 -960
2018-06-13 09:04:08 GMT 49.033844 2.274459 3,600 83 171 -960
2018-06-13 09:04:05 GMT 49.033707 2.271568 3,625 83 171 -896
2018-06-13 09:04:02 GMT 49.033356 2.268113 3,675 84 173 -896
2018-06-13 09:03:56 GMT 49.032822 2.259064 3,800 84 174 -960
2018-06-13 09:03:52 GMT 49.032681 2.255594 3,825 84 176 -832
2018-06-13 09:03:45 GMT 49.031982 2.246845 3,925 83 181 -832
2018-06-13 09:03:41 GMT 49.031616 2.241845 4,050 84 181 -832
2018-06-13 09:03:37 GMT 49.031296 2.236211 4,050 84 181 -832
2018-06-13 09:03:34 GMT 49.031097 2.232248 4,100 84 185 -896
2018-06-13 09:03:31 GMT 49.030792 2.229027 4,125 83 188 -960
2018-06-13 09:03:24 GMT 49.030075 2.220250 4,250 83 191 -1024
2018-06-13 09:03:21 GMT 49.029739 2.215083 4,300 83 192 -1024
2018-06-13 09:03:11 GMT 49.028732 2.200505 4,500 83 197 -1216
2018-06-13 09:03:02 GMT 49.027840 2.189532 4,675 83 200 -1472
2018-06-13 09:02:59 GMT 49.027496 2.184871 4,775 84 201 -1472
2018-06-13 09:02:52 GMT 49.026810 2.175786 5,225 84 201 -1600
2018-06-13 09:02:49 GMT 49.026672 2.171842 5,000 84 201 -1600
2018-06-13 09:02:43 GMT 49.025978 2.162066 5,250 85 201 -1536
2018-06-13 09:02:38 GMT 49.025604 2.155200 5,300 85 200 -1408
2018-06-13 09:02:30 GMT 49.024769 2.143490 5,500 83 198 -1216
2018-06-13 09:02:27 GMT 49.024582 2.140599 5,500 83 198 -1216
2018-06-13 09:02:22 GMT 49.024063 2.133179 5,650 83 196 -1024
2018-06-13 09:02:19 GMT 49.023926 2.129939 5,700 83 196 -1024
2018-06-13 09:02:16 GMT 49.023560 2.124939 5,700 83 196 -1024
2018-06-13 09:02:10 GMT 49.022858 2.117109 5,850 83 195 -960
2018-06-13 09:02:07 GMT 49.022690 2.113460 5,850 83 195 -960
2018-06-13 09:01:57 GMT 49.021694 2.099039 6,025 84 194 -896
2018-06-13 09:01:50 GMT 49.020996 2.088600 6,150 83 193 -832
2018-06-13 09:01:46 GMT 49.020630 2.084797 6,175 84 193 -832
2018-06-13 09:01:39 GMT 49.019943 2.074655 6,300 84 191 -768
2018-06-13 09:01:35 GMT 49.019623 2.070219 6,325 84 191 -768
2018-06-13 09:01:29 GMT 49.019089 2.060804 6,400 84 190 -832
2018-06-13 09:01:25 GMT 49.018753 2.054795 6,500 84 190 -832
2018-06-13 09:01:21 GMT 49.018433 2.049443 6,575 84 189 -896
2018-06-13 09:01:15 GMT 49.018066 2.043598 6,650 84 187 -1088
2018-06-13 09:01:12 GMT 49.017738 2.038976 6,700 84 187 -1152
2018-06-13 09:01:05 GMT 49.017059 2.029724 6,850 84 195 -1280
2018-06-13 09:01:02 GMT 49.016712 2.024881 6,925 84 200 -1408
2018-06-13 09:00:54 GMT 49.016014 2.014618 7,125 83 208 -1728
2018-06-13 09:00:51 GMT 49.015690 2.009414 7,225 84 211 -1856
2018-06-13 09:00:44 GMT 49.014992 1.998644 7,475 84 217 -2432
2018-06-13 09:00:40 GMT 49.014633 1.992821 7,650 83 218 -2816
2018-06-13 09:00:34 GMT 49.013947 1.983032 7,975 84 219 -3136
2018-06-13 09:00:29 GMT 49.013454 1.975949 8,200 84 219 -3136
2018-06-13 09:00:23 GMT 49.012756 1.965469 8,575 84 220 -3200
2018-06-13 09:00:19 GMT 49.012428 1.959325 8,850 84 220 -3200
2018-06-13 09:00:15 GMT 49.012070 1.952961 9,025 85 218 -3520
2018-06-13 09:00:12 GMT 49.011730 1.948845 9,150 85 218 -3584
2018-06-13 09:00:07 GMT 49.011383 1.941974 9,425 85 216 -3648
2018-06-13 09:00:01 GMT 49.010880 1.933382 9,750 84 215 -2880
2018-06-13 08:59:56 GMT 49.010521 1.925137 10,025 84 216 -2688
2018-06-13 08:59:53 GMT 49.010193 1.921903 10,100 84 217 -2624
2018-06-13 08:59:50 GMT 49.010010 1.917259 10,225 85 218 -2496
2018-06-13 08:59:44 GMT 49.009323 1.907114 10,525 84 222 -2624
2018-06-13 08:59:41 GMT 49.008987 1.901141 10,700 82 222 -2688
2018-06-13 08:59:32 GMT 49.007767 1.888451 11,075 80 225 -3008
2018-06-13 08:59:29 GMT 49.007263 1.884155 11,225 80 225 -3072
2018-06-13 08:59:25 GMT 49.006393 1.876549 11,450 78 225 -3136
2018-06-13 08:59:20 GMT 49.005203 1.868028 11,750 78 225 -3008
2018-06-13 08:59:14 GMT 49.004013 1.859929 12,475 98 243 -2880
2018-06-13 08:59:11 GMT 49.003464 1.856830 12,100 77 226 -2880
2018-06-13 08:59:08 GMT 49.002777 1.851830 12,225 77 227 -2496
2018-06-13 08:59:03 GMT 49.001446 1.842595 12,600 81 238 -2816
2018-06-13 08:58:58 GMT 49.000397 1.836055 12,625 77 233 -2368
2018-06-13 08:58:51 GMT 48.998837 1.823875 13,000 80 237 -2624
2018-06-13 08:58:48 GMT 48.998154 1.819082 13,050 80 238 -2752
2018-06-13 08:58:40 GMT 48.997116 1.805372 13,425 86 240 -3008
2018-06-13 08:58:36 GMT 48.996975 1.798650 13,625 124 262 -1792
2018-06-13 08:58:28 GMT 48.997284 1.785419 14,000 95 242 -3008
2018-06-13 08:58:25 GMT 48.997833 1.780630 14,125 124 262 -1792
2018-06-13 08:58:18 GMT 48.999722 1.769449 14,400 108 250 -2112
2018-06-13 08:58:15 GMT 49.001083 1.763939 14,625 124 262 -1792
2018-06-13 08:58:12 GMT 49.003307 1.757812 14,625 124 262 -1792
2018-06-13 08:58:07 GMT 49.006378 1.751235 14,850 136 268 -2304
2018-06-13 08:58:04 GMT 49.008472 1.747983 14,850 135 268 -2240
2018-06-13 08:57:56 GMT 49.017059 1.736192 15,275 138 269 -2944
2018-06-13 08:57:51 GMT 49.020996 1.730853 15,475 139 269 -3072
2018-06-13 08:57:48 GMT 49.023560 1.727741 15,900 141 269 -2624
2018-06-13 08:57:44 GMT 49.027512 1.722613 15,825 141 269 -2752
2018-06-13 08:57:38 GMT 49.033356 1.715910 16,175 146 273 -2624
2018-06-13 08:57:34 GMT 49.038174 1.711121 16,250 151 273 -3008
2018-06-13 08:57:27 GMT 49.045715 1.705980 16,625 162 272 -3648
2018-06-13 08:57:23 GMT 49.051395 1.704037 16,900 171 270 -3200
2018-06-13 08:57:18 GMT 49.057400 1.703025 17,125 175 270 -2368
2018-06-13 08:57:12 GMT 49.065125 1.701965 17,325 174 275 -1664
2018-06-13 08:57:07 GMT 49.071304 1.701332 17,450 175 278 -1280
2018-06-13 08:57:03 GMT 49.075603 1.700640 17,550 175 278 -1280
2018-06-13 08:57:00 GMT 49.080048 1.700134 17,600 175 280 -1280
2018-06-13 08:56:55 GMT 49.086227 1.699219 17,700 174 280 -1216
2018-06-13 08:56:52 GMT 49.091522 1.698544 17,775 174 281 -1024
2018-06-13 08:56:45 GMT 49.098587 1.697529 17,850 174 283 -832
2018-06-13 08:56:42 GMT 49.103580 1.696882 17,925 174 285 -960
2018-06-13 08:56:39 GMT 49.107349 1.696304 17,950 174 286 -1024
2018-06-13 08:56:36 GMT 49.111633 1.695838 18,025 174 287 -1088
2018-06-13 08:56:31 GMT 49.117447 1.694993 18,075 174 288 -960
2018-06-13 08:56:28 GMT 49.121593 1.694280 18,150 174 290 -768
2018-06-13 08:56:25 GMT 49.126053 1.693726 18,175 174 291 -704
2018-06-13 08:56:17 GMT 49.137360 1.692035 18,275 174 295 -768
2018-06-13 08:56:14 GMT 49.140106 1.691683 18,300 174 296 -960
2018-06-13 08:56:09 GMT 49.146652 1.690697 18,450 174 297 -1408
2018-06-13 08:56:06 GMT 49.151810 1.690015 18,500 174 297 -1280
2018-06-13 08:56:03 GMT 49.156277 1.689293 18,550 174 297 -1280
2018-06-13 08:55:58 GMT 49.162445 1.688444 18,725 174 301 -1216
2018-06-13 08:55:55 GMT 49.167938 1.687739 18,750 174 299 -1152
2018-06-13 08:55:52 GMT 49.170181 1.687387 18,750 174 299 -1152
2018-06-13 08:55:49 GMT 49.174622 1.686753 18,825 174 300 -1216
2018-06-13 08:55:45 GMT 49.179611 1.686049 18,900 174 300 -1280
2018-06-13 08:55:42 GMT 49.184395 1.685317 18,975 174 300 -1280
2018-06-13 08:55:39 GMT 49.189377 1.684667 19,250 174 304 -896
2018-06-13 08:55:33 GMT 49.197102 1.683438 19,200 174 302 -1024
2018-06-13 08:55:30 GMT 49.201572 1.682787 19,200 174 302 -1024
2018-06-13 08:55:27 GMT 49.206207 1.682105 19,275 174 306 -1024
2018-06-13 08:55:23 GMT 49.212234 1.681197 19,525 175 322 -1344
2018-06-13 08:55:20 GMT 49.214977 1.680908 19,375 174 307 -1344
2018-06-13 08:55:17 GMT 49.218750 1.680345 19,400 174 307 -1472
2018-06-13 08:55:14 GMT 49.223034 1.679679 19,550 174 306 -1728
2018-06-13 08:55:11 GMT 49.227676 1.679007 19,575 174 306 -1728
2018-06-13 08:55:07 GMT 49.233692 1.678306 19,700 174 305 -1536
2018-06-13 08:55:03 GMT 49.239326 1.677439 19,800 175 306 -1280
2018-06-13 08:55:00 GMT 49.243469 1.676964 20,575 174 316 -1216
2018-06-13 08:54:54 GMT 49.251892 1.675908 19,975 174 307 -1024
2018-06-13 08:54:51 GMT 49.255665 1.675415 20,000 174 308 -1088
2018-06-13 08:54:48 GMT 49.259624 1.674909 20,200 175 310 -1280
2018-06-13 08:54:45 GMT 49.265076 1.674218 20,125 175 310 -1280
2018-06-13 08:54:41 GMT 49.271255 1.673302 20,225 175 310 -1344
2018-06-13 08:54:38 GMT 49.275543 1.672813 20,300 175 311 -1408
2018-06-13 08:54:35 GMT 49.279358 1.672316 20,625 175 311 -1280
2018-06-13 08:54:31 GMT 49.285366 1.671584 20,450 175 312 -1216
2018-06-13 08:54:28 GMT 49.289463 1.671078 20,775 175 322 -1344
2018-06-13 08:54:24 GMT 49.294628 1.670428 20,600 175 313 -1088
2018-06-13 08:54:20 GMT 49.300961 1.669560 20,650 175 314 -1088
2018-06-13 08:54:16 GMT 49.306458 1.668865 20,900 174 316 -1152
2018-06-13 08:54:12 GMT 49.312820 1.668020 20,800 174 316 -1216
2018-06-13 08:54:09 GMT 49.316605 1.667464 20,925 175 317 -1280
2018-06-13 08:54:05 GMT 49.322067 1.666823 21,000 175 317 -1344
2018-06-13 08:54:01 GMT 49.327927 1.666119 21,025 175 318 -1216
2018-06-13 08:53:58 GMT 49.333408 1.665441 21,200 175 318 -1216
2018-06-13 08:53:52 GMT 49.340626 1.664573 21,200 175 318 -1152
2018-06-13 08:53:48 GMT 49.347652 1.663923 21,300 175 320 -1216
2018-06-13 08:53:44 GMT 49.354523 1.663020 21,425 175 320 -1472
2018-06-13 08:53:41 GMT 49.357956 1.662668 21,450 175 321 -1472
2018-06-13 08:53:36 GMT 49.365528 1.661682 21,575 175 320 -1472
2018-06-13 08:53:31 GMT 49.371861 1.660959 21,675 175 320 -1280
2018-06-13 08:53:28 GMT 49.376862 1.660274 21,750 175 321 -1280
2018-06-13 08:53:25 GMT 49.381496 1.659803 21,875 175 321 -1344
2018-06-13 08:53:21 GMT 49.388527 1.658936 21,925 175 321 -1472
2018-06-13 08:53:18 GMT 49.391098 1.658583 22,000 175 322 -1536
2018-06-13 08:53:15 GMT 49.396954 1.658068 22,100 175 321 -1664
2018-06-13 08:53:10 GMT 49.404491 1.657056 22,225 175 322 -1536
2018-06-13 08:53:07 GMT 49.408077 1.656478 22,350 175 325 -3136
2018-06-13 08:53:02 GMT 49.416138 1.655485 22,400 174 323 -1216
2018-06-13 08:52:59 GMT 49.420258 1.654992 22,500 174 323 -1280
2018-06-13 08:52:55 GMT 49.425953 1.654093 22,550 174 323 -1536
2018-06-13 08:52:52 GMT 49.431610 1.653442 23,350 175 312 -3328
2018-06-13 08:52:48 GMT 49.435406 1.652700 22,875 174 321 -2624
2018-06-13 08:52:39 GMT 49.449646 1.650985 23,675 174 309 -3008
2018-06-13 08:52:35 GMT 49.454445 1.650325 23,675 174 309 -3008
2018-06-13 08:52:31 GMT 49.462311 1.649285 23,725 175 309 -2880
2018-06-13 08:52:27 GMT 49.465576 1.648961 24,150 175 310 -2816
2018-06-13 08:52:21 GMT 49.476742 1.647430 24,200 175 311 -2752
2018-06-13 08:52:15 GMT 49.483978 1.646576 24,675 175 313 -2560
2018-06-13 08:52:11 GMT 49.489609 1.645853 24,750 175 315 -2624
2018-06-13 08:52:07 GMT 49.495132 1.645203 25,000 175 318 -2816
2018-06-13 08:52:04 GMT 49.499226 1.644683 24,875 175 316 -2752
2018-06-13 08:52:00 GMT 49.505604 1.643941 25,075 175 317 -2816
2018-06-13 08:51:54 GMT 49.513641 1.642962 25,525 175 318 -2816
2018-06-13 08:51:49 GMT 49.522594 1.641936 25,750 175 320 -2752
2018-06-13 08:51:46 GMT 49.526180 1.641417 25,750 175 320 -2752
2018-06-13 08:51:43 GMT 49.529434 1.641083 25,850 175 323 -2816
2018-06-13 08:51:39 GMT 49.537857 1.639999 26,425 175 324 -2880
2018-06-13 08:51:35 GMT 49.543167 1.639348 26,325 175 324 -2944
2018-06-13 08:51:30 GMT 49.549713 1.638481 26,525 175 325 -3136
2018-06-13 08:51:26 GMT 49.557091 1.637483 26,775 175 325 -3072
2018-06-13 08:51:23 GMT 49.560516 1.637107 26,850 175 325 -3136
2018-06-13 08:51:16 GMT 49.571011 1.635701 27,750 175 326 -3008
2018-06-13 08:51:12 GMT 49.576126 1.635084 27,375 175 327 -2944
2018-06-13 08:51:07 GMT 49.585236 1.633855 27,675 175 329 -3136
2018-06-13 08:51:03 GMT 49.591232 1.633132 28,075 175 328 -3072
2018-06-13 08:50:58 GMT 49.597275 1.632337 28,075 175 328 -3072
2018-06-13 08:50:54 GMT 49.604809 1.631618 28,325 176 330 -2816
2018-06-13 08:50:51 GMT 49.608440 1.631247 28,425 177 331 -2688
2018-06-13 08:50:44 GMT 49.620075 1.631099 28,775 183 332 -3328
2018-06-13 08:50:41 GMT 49.624191 1.631614 30,375 207 324 -3072
2018-06-13 08:50:35 GMT 49.632786 1.633994 29,500 238 321 -896
2018-06-13 08:50:31 GMT 49.639675 1.637631 29,625 204 325 -3328
2018-06-13 08:50:26 GMT 49.645493 1.641936 30,050 225 325 -1792
2018-06-13 08:50:22 GMT 49.652023 1.648094 30,125 218 325 -2176
2018-06-13 08:50:19 GMT 49.653549 1.649953 30,125 218 325 -2176
2018-06-13 08:50:16 GMT 49.657516 1.655105 30,300 271 310 -576
2018-06-13 08:50:13 GMT 49.660625 1.660123 30,375 232 322 -1344
2018-06-13 08:50:10 GMT 49.663696 1.665765 30,625 257 314 -512
2018-06-13 08:50:03 GMT 49.668686 1.677800 30,625 257 314 -512
2018-06-13 08:50:00 GMT 49.671051 1.685511 31,475 256 315 -512
2018-06-13 08:49:54 GMT 49.673798 1.698204 31,475 256 315 -512
2018-06-13 08:49:50 GMT 49.674683 1.705256 30,625 262 313 -448
2018-06-13 08:49:47 GMT 49.675194 1.713348 30,750 270 311 -512
2018-06-13 08:49:44 GMT 49.675369 1.720878 30,675 275 309 -896
2018-06-13 08:49:41 GMT 49.675007 1.726561 30,725 302 294 -896
2018-06-13 08:49:38 GMT 49.674358 1.734281 30,775 281 306 -1344
2018-06-13 08:49:35 GMT 49.673126 1.740610 30,850 286 303 -1664
2018-06-13 08:49:31 GMT 49.671432 1.748705 31,100 296 296 -1280
2018-06-13 08:49:26 GMT 49.668686 1.756945 31,075 301 295 -960
2018-06-13 08:49:20 GMT 49.662998 1.769615 31,150 311 292 -704
2018-06-13 08:49:15 GMT 49.659760 1.774798 31,275 323 290 -512
2018-06-13 08:49:09 GMT 49.653030 1.783038 31,275 329 292 -320
2018-06-13 08:49:06 GMT 49.649639 1.786318 31,325 346 293 -640
2018-06-13 08:49:03 GMT 49.646027 1.789037 31,325 346 293 -640
2018-06-13 08:49:00 GMT 49.642410 1.791061 31,350 343 292 -832
2018-06-13 08:48:56 GMT 49.637581 1.793147 31,400 347 292 -576
2018-06-13 08:48:53 GMT 49.633808 1.794557 31,400 347 292 -576
2018-06-13 08:48:50 GMT 49.630226 1.795893 31,450 3 307 -576
2018-06-13 08:48:46 GMT 49.622498 1.798650 31,475 347 293 -320
2018-06-13 08:48:43 GMT 49.620941 1.799300 31,475 347 293 -320
2018-06-13 08:48:37 GMT 49.612209 1.802426 31,525 347 294 -512
2018-06-13 08:48:34 GMT 49.608440 1.803762 31,550 348 294 -512
2018-06-13 08:48:30 GMT 49.602760 1.805841 31,575 347 294 -384
2018-06-13 08:48:25 GMT 49.596241 1.808068 31,600 347 294 -192
2018-06-13 08:48:22 GMT 49.592789 1.809275 31,600 347 294 -192
2018-06-13 08:48:19 GMT 49.586792 1.811482 31,625 347 296 -256
2018-06-13 08:48:16 GMT 49.584229 1.812383 31,625 347 298 -448
2018-06-13 08:48:13 GMT 49.580276 1.813783 31,650 347 297 -320
2018-06-13 08:48:09 GMT 49.574615 1.815780 31,700 347 299 -192
2018-06-13 08:48:05 GMT 49.569260 1.817876 31,700 347 298 -448
2018-06-13 08:48:02 GMT 49.565331 1.819277 31,700 347 298 -384
2018-06-13 08:47:59 GMT 49.561050 1.820761 31,750 347 299 -192
2018-06-13 08:47:52 GMT 49.550583 1.824742 31,800 347 298 -448
2018-06-13 08:47:49 GMT 49.547836 1.825754 31,800 347 299 -192
2018-06-13 08:47:44 GMT 49.541977 1.827850 31,825 347 299 -128
2018-06-13 08:47:40 GMT 49.536842 1.829743 31,825 347 300 -192
2018-06-13 08:47:37 GMT 49.530975 1.831748 31,850 354 303 -384
2018-06-13 08:47:34 GMT 49.528790 1.832490 31,950 348 302 -448
2018-06-13 08:47:31 GMT 49.523808 1.834197 31,900 349 303 -576
2018-06-13 08:47:28 GMT 49.518631 1.835729 31,900 350 302 -704
2018-06-13 08:47:23 GMT 49.512821 1.837463 31,975 351 302 -512
2018-06-13 08:47:20 GMT 49.508698 1.838620 31,975 351 302 -384
2018-06-13 08:47:17 GMT 49.503708 1.839704 32,075 353 303 -256
2018-06-13 08:47:10 GMT 49.494781 1.840499 32,050 4 307 -576
2018-06-13 08:47:07 GMT 49.488754 1.839839 32,100 16 311 -640
2018-06-13 08:47:01 GMT 49.482098 1.837760 32,150 35 318 -896
2018-06-13 08:46:57 GMT 49.476604 1.835014 32,175 33 318 -832
2018-06-13 08:46:53 GMT 49.469711 1.830040 32,275 31 317 -832
2018-06-13 08:46:49 GMT 49.465942 1.826477 32,425 42 320 -640
2018-06-13 08:46:46 GMT 49.463013 1.823369 32,325 42 321 -448
2018-06-13 08:46:41 GMT 49.457199 1.815780 32,400 42 321 -384
2018-06-13 08:46:38 GMT 49.453934 1.811185 32,425 42 320 -704
2018-06-13 08:46:35 GMT 49.450653 1.806528 32,450 42 320 -640
2018-06-13 08:46:31 GMT 49.446213 1.800529 32,475 42 320 -448
2018-06-13 08:46:27 GMT 49.441734 1.794186 32,525 42 320 -448
2018-06-13 08:46:24 GMT 49.438293 1.789543 32,550 42 320 -512
2018-06-13 08:46:19 GMT 49.433167 1.782170 32,575 42 321 -448
2018-06-13 08:46:16 GMT 49.429733 1.777183 32,600 42 323 -320
2018-06-13 08:46:11 GMT 49.424557 1.770172 32,800 42 322 -576
2018-06-13 08:46:08 GMT 49.420807 1.764996 32,650 42 322 -576
2018-06-13 08:46:04 GMT 49.416504 1.758798 32,700 42 322 -640
2018-06-13 08:46:01 GMT 49.413391 1.754503 32,725 42 322 -640
2018-06-13 08:45:58 GMT 49.410126 1.749862 32,775 42 322 -640
2018-06-13 08:45:55 GMT 49.406891 1.745277 32,850 42 322 -640
2018-06-13 08:45:52 GMT 49.402954 1.739784 32,900 42 322 -576
2018-06-13 08:45:47 GMT 49.397465 1.732009 32,900 42 322 -576
2018-06-13 08:45:44 GMT 49.395035 1.728586 33,000 42 322 -512
2018-06-13 08:45:41 GMT 49.390388 1.722251 32,975 42 323 -320
2018-06-13 08:45:37 GMT 49.387318 1.717987 33,000 42 322 -512
2018-06-13 08:45:33 GMT 49.383179 1.711966 33,050 42 322 -320
2018-06-13 08:45:30 GMT 49.378563 1.705627 33,125 42 323 -320
2018-06-13 08:45:26 GMT 49.374802 1.700275 33,050 42 324 -448
2018-06-13 08:45:23 GMT 49.371689 1.695838 33,100 42 324 -512
2018-06-13 08:45:19 GMT 49.366013 1.687739 33,100 42 324 -512
2018-06-13 08:45:16 GMT 49.363266 1.684148 33,125 42 324 -448
2018-06-13 08:45:11 GMT 49.356918 1.675054 33,175 42 324 -448
2018-06-13 08:45:06 GMT 49.353008 1.669560 33,225 42 326 -384
2018-06-13 08:45:02 GMT 49.348343 1.662879 33,250 42 326 -256
2018-06-13 08:44:58 GMT 49.343033 1.655485 33,250 42 326 -320
2018-06-13 08:44:54 GMT 49.338547 1.649146 33,275 42 327 -448
2018-06-13 08:44:51 GMT 49.336670 1.646541 33,325 42 327 -448
2018-06-13 08:44:48 GMT 49.333080 1.641227 33,300 43 328 -448
2018-06-13 08:44:45 GMT 49.329620 1.636399 33,475 52 335 -512
2018-06-13 08:44:42 GMT 49.326553 1.631963 33,375 43 328 -512
2018-06-13 08:44:39 GMT 49.322617 1.626329 33,400 43 328 -448
2018-06-13 08:44:35 GMT 49.317810 1.619075 33,425 44 329 -640
2018-06-13 08:44:30 GMT 49.313343 1.612388 33,500 45 330 -576
2018-06-13 08:44:27 GMT 49.310226 1.607618 33,500 45 330 -576
2018-06-13 08:44:23 GMT 49.305771 1.600553 33,625 51 333 -640
2018-06-13 08:44:19 GMT 49.301331 1.593018 33,600 47 331 -704
2018-06-13 08:44:15 GMT 49.297379 1.586296 33,625 49 332 -384
2018-06-13 08:44:11 GMT 49.293915 1.580271 33,750 58 362 0
2018-06-13 08:44:08 GMT 49.290848 1.574425 33,700 50 334 -512
2018-06-13 08:44:05 GMT 49.287926 1.569166 33,700 50 334 -512
2018-06-13 08:44:01 GMT 49.283646 1.561070 33,775 52 334 -512
2018-06-13 08:43:57 GMT 49.280365 1.554565 33,775 53 336 -576
2018-06-13 08:43:53 GMT 49.276245 1.546326 33,825 54 335 -640
2018-06-13 08:43:50 GMT 49.272797 1.539098 33,850 54 336 -640
2018-06-13 08:43:47 GMT 49.271122 1.535123 33,900 56 337 -256
2018-06-13 08:43:44 GMT 49.266998 1.526043 33,925 56 337 -256
2018-06-13 08:43:41 GMT 49.265625 1.522945 33,925 56 338 -256
2018-06-13 08:43:38 GMT 49.262512 1.515761 33,950 56 338 -256
2018-06-13 08:43:34 GMT 49.259445 1.508507 33,975 58 340 -256
2018-06-13 08:43:30 GMT 49.256149 1.500268 34,000 58 341 -192
2018-06-13 08:43:26 GMT 49.253265 1.492943 34,000 59 342 -64
2018-06-13 08:43:22 GMT 49.249649 1.483788 34,000 59 347 0
2018-06-13 08:43:18 GMT 49.246719 1.476253 34,000 59 344 0
2018-06-13 08:43:15 GMT 49.243790 1.468717 34,000 59 348 0
2018-06-13 08:43:09 GMT 49.239532 1.457872 34,000 59 348 0
2018-06-13 08:43:06 GMT 49.237106 1.451886 34,000 58 351 0
2018-06-13 08:43:03 GMT 49.233322 1.442245 34,000 59 352 0
2018-06-13 08:42:58 GMT 49.229549 1.432848 34,000 59 355 0
2018-06-13 08:42:55 GMT 49.227318 1.426849 34,000 59 353 0
2018-06-13 08:42:52 GMT 49.224747 1.420335 34,000 58 356 0
2018-06-13 08:42:47 GMT 49.219620 1.407447 34,000 59 357 0
2018-06-13 08:42:43 GMT 49.216873 1.400546 34,000 58 360 0
2018-06-13 08:42:37 GMT 49.211861 1.388036 34,000 58 362 0
2018-06-13 08:42:33 GMT 49.207764 1.377411 34,000 59 365 0
2018-06-13 08:42:30 GMT 49.206039 1.373074 34,000 58 364 0
2018-06-13 08:42:26 GMT 49.202969 1.365051 34,000 59 365 0
2018-06-13 08:42:21 GMT 49.197617 1.351824 34,000 58 368 0
2018-06-13 08:42:17 GMT 49.194031 1.342374 34,000 59 370 0
2018-06-13 08:42:14 GMT 49.192493 1.338453 34,000 59 373 0
2018-06-13 08:42:11 GMT 49.189236 1.330358 34,000 58 375 0
2018-06-13 08:42:08 GMT 49.185791 1.321599 34,000 58 374 0
2018-06-13 08:42:05 GMT 49.183231 1.314890 34,000 59 375 0
2018-06-13 08:42:00 GMT 49.179428 1.305260 34,000 59 379 0
2018-06-13 08:41:57 GMT 49.176178 1.297021 34,000 59 379 0
2018-06-13 08:41:53 GMT 49.173409 1.290388 34,000 58 380 0
2018-06-13 08:41:49 GMT 49.169998 1.281457 34,000 59 390 0
2018-06-13 08:41:45 GMT 49.165867 1.270945 33,975 58 386 0
2018-06-13 08:41:42 GMT 49.162949 1.263921 33,975 59 398 0
2018-06-13 08:41:39 GMT 49.160374 1.256850 34,000 59 387 0
2018-06-13 08:41:36 GMT 49.157455 1.249836 34,000 59 391 0
2018-06-13 08:41:33 GMT 49.154694 1.242828 34,000 59 390 0
2018-06-13 08:41:29 GMT 49.150772 1.232863 34,000 59 393 0
2018-06-13 08:41:26 GMT 49.148529 1.227159 34,000 59 394 0
2018-06-13 08:41:23 GMT 49.145966 1.220468 34,000 59 395 0
2018-06-13 08:41:20 GMT 49.142715 1.211736 33,975 59 396 0
2018-06-13 08:41:17 GMT 49.139610 1.203653 34,000 59 415 0
2018-06-13 08:41:13 GMT 49.136166 1.195052 33,975 59 402 0
2018-06-13 08:41:08 GMT 49.132069 1.184283 34,000 59 403 0
2018-06-13 08:41:05 GMT 49.128799 1.175889 34,000 59 403 0
2018-06-13 08:41:02 GMT 49.126389 1.169683 33,975 59 408 0
2018-06-13 08:40:58 GMT 49.122253 1.159198 33,975 59 417 0
2018-06-13 08:40:54 GMT 49.118336 1.148722 33,975 59 409 0
2018-06-13 08:40:51 GMT 49.115387 1.141170 34,000 59 411 0
2018-06-13 08:40:48 GMT 49.112144 1.132748 34,000 59 413 0
2018-06-13 08:40:45 GMT 49.109726 1.126749 34,000 59 415 0
2018-06-13 08:40:42 GMT 49.106327 1.117859 34,000 59 416 0
2018-06-13 08:40:39 GMT 49.104080 1.112154 34,000 59 419 -64
2018-06-13 08:40:35 GMT 49.100143 1.102013 34,000 59 418 -64
2018-06-13 08:40:32 GMT 49.095840 1.090886 34,000 58 419 0
2018-06-13 08:40:28 GMT 49.093105 1.084394 34,000 58 420 0
2018-06-13 08:40:25 GMT 49.088634 1.073408 34,000 58 419 0
2018-06-13 08:40:21 GMT 49.084488 1.062716 34,000 58 413 0
2018-06-13 08:40:14 GMT 49.078491 1.047645 34,000 58 414 0
2018-06-13 08:40:09 GMT 49.073879 1.036329 34,000 58 414 0
2018-06-13 08:40:05 GMT 49.069748 1.025813 34,000 58 413 0
2018-06-13 08:40:02 GMT 49.066292 1.017392 34,000 58 414 0
2018-06-13 08:39:59 GMT 49.062706 1.008502 34,000 58 413 0
2018-06-13 08:39:54 GMT 49.058750 0.998527 34,000 58 427 576
2018-06-13 08:39:50 GMT 49.054794 0.988553 34,000 58 411 0
2018-06-13 08:39:47 GMT 49.050510 0.977783 34,000 58 410 0
2018-06-13 08:39:44 GMT 49.048462 0.972941 34,000 58 427 576
2018-06-13 08:39:40 GMT 49.044178 0.962171 34,000 58 410 0
2018-06-13 08:39:37 GMT 49.040546 0.953209 34,000 58 410 0
2018-06-13 08:39:34 GMT 49.037800 0.946198 34,000 58 427 576
2018-06-13 08:39:29 GMT 49.034042 0.936584 34,000 58 420 -64
2018-06-13 08:39:25 GMT 49.029053 0.924542 34,000 58 423 -128
2018-06-13 08:39:22 GMT 49.026814 0.919021 34,025 58 428 576
2018-06-13 08:39:18 GMT 49.023232 0.909986 34,025 58 428 704
2018-06-13 08:39:15 GMT 49.019089 0.899650 33,975 58 427 576
2018-06-13 08:39:12 GMT 49.015137 0.889681 33,925 58 427 576
2018-06-13 08:39:09 GMT 49.012569 0.883171 33,900 58 427 640
2018-06-13 08:39:05 GMT 49.008472 0.873052 33,875 58 426 768
2018-06-13 08:39:02 GMT 49.006378 0.867920 33,825 58 426 768
2018-06-13 08:38:59 GMT 49.003143 0.860173 33,800 58 426 768
2018-06-13 08:38:56 GMT 49.000233 0.852597 33,725 58 426 704
2018-06-13 08:38:53 GMT 48.996277 0.842989 33,700 58 425 832
2018-06-13 08:38:50 GMT 48.993713 0.836651 33,675 58 426 896
2018-06-13 08:38:46 GMT 48.989388 0.825998 33,600 58 426 1024
2018-06-13 08:38:42 GMT 48.985802 0.816891 33,350 58 426 1088
2018-06-13 08:38:37 GMT 48.980484 0.804044 33,450 58 428 1024
2018-06-13 08:38:33 GMT 48.976868 0.794959 33,400 58 426 1152
2018-06-13 08:38:29 GMT 48.972256 0.783282 33,325 58 426 960
2018-06-13 08:38:26 GMT 48.968998 0.775042 33,250 58 426 960
2018-06-13 08:38:23 GMT 48.966064 0.767814 33,200 58 426 960
2018-06-13 08:38:19 GMT 48.961578 0.757000 33,100 58 426 1024
2018-06-13 08:38:15 GMT 48.958153 0.748444 33,075 58 427 1088
2018-06-13 08:38:12 GMT 48.954891 0.740204 33,025 58 427 1088
2018-06-13 08:38:09 GMT 48.952007 0.733121 32,850 58 427 1024
2018-06-13 08:38:05 GMT 48.948048 0.722857 32,875 58 427 960
2018-06-13 08:38:02 GMT 48.943905 0.712521 32,800 58 427 1024
2018-06-13 08:37:58 GMT 48.939808 0.702258 32,775 58 428 1024
2018-06-13 08:37:55 GMT 48.937912 0.697632 32,725 58 427 960
2018-06-13 08:37:52 GMT 48.934132 0.688019 32,675 58 428 1024
2018-06-13 08:37:49 GMT 48.930359 0.678695 32,600 59 427 896
2018-06-13 08:37:46 GMT 48.927937 0.672551 32,550 59 427 832
2018-06-13 08:37:42 GMT 48.924500 0.663757 32,500 59 427 960
2018-06-13 08:37:39 GMT 48.920746 0.654320 32,500 59 427 1024
2018-06-13 08:37:35 GMT 48.916626 0.643712 32,400 58 427 1024
2018-06-13 08:37:32 GMT 48.913513 0.636010 32,375 58 427 1024
2018-06-13 08:37:29 GMT 48.910110 0.627377 32,325 58 428 960
2018-06-13 08:37:25 GMT 48.906647 0.618474 32,200 58 427 1024
2018-06-13 08:37:22 GMT 48.903214 0.610234 32,200 58 427 1024
2018-06-13 08:37:19 GMT 48.899822 0.601646 32,150 58 427 1024
2018-06-13 08:37:15 GMT 48.895676 0.591382 31,950 58 427 1088
2018-06-13 08:37:11 GMT 48.893097 0.584811 32,050 58 427 1024
2018-06-13 08:37:08 GMT 48.888657 0.573684 31,925 58 427 1024
2018-06-13 08:37:05 GMT 48.885727 0.566430 31,900 58 427 960
2018-06-13 08:37:02 GMT 48.882645 0.558713 31,875 58 427 960
2018-06-13 08:36:57 GMT 48.878677 0.549105 31,750 58 427 1024
2018-06-13 08:36:54 GMT 48.875614 0.541366 31,750 58 427 1024
2018-06-13 08:36:51 GMT 48.871994 0.532837 31,700 58 427 1024
2018-06-13 08:36:44 GMT 48.864765 0.514984 31,500 58 427 1152
2018-06-13 08:36:41 GMT 48.861694 0.507413 31,500 58 427 1152
2018-06-13 08:36:38 GMT 48.858765 0.500230 31,475 57 428 960
2018-06-13 08:36:35 GMT 48.854294 0.489398 31,350 58 427 1216
2018-06-13 08:36:32 GMT 48.852245 0.484410 31,325 58 427 1152
2018-06-13 08:36:29 GMT 48.849152 0.476849 31,275 58 427 1152
2018-06-13 08:36:26 GMT 48.845539 0.468075 31,200 58 428 1216
2018-06-13 08:36:21 GMT 48.840050 0.454848 31,100 58 429 960
2018-06-13 08:36:18 GMT 48.837479 0.448327 30,950 58 428 896
2018-06-13 08:36:14 GMT 48.833019 0.437574 30,975 58 428 960
2018-06-13 08:36:11 GMT 48.829605 0.428960 30,950 58 427 960
2018-06-13 08:36:08 GMT 48.827545 0.423819 30,925 57 428 896
2018-06-13 08:36:03 GMT 48.821705 0.410108 30,825 58 426 576
2018-06-13 08:35:59 GMT 48.816559 0.397550 30,800 58 426 384
2018-06-13 08:35:52 GMT 48.810532 0.382787 30,700 58 424 384
2018-06-13 08:35:48 GMT 48.805389 0.370225 30,725 57 402 1152
2018-06-13 08:35:42 GMT 48.800243 0.357562 30,675 58 411 512
2018-06-13 08:35:39 GMT 48.796783 0.349168 30,675 58 420 448
2018-06-13 08:35:36 GMT 48.793728 0.341588 30,300 57 402 1152
2018-06-13 08:35:31 GMT 48.789074 0.330602 30,625 58 418 448
2018-06-13 08:35:28 GMT 48.786327 0.323735 30,600 58 416 448
2018-06-13 08:35:23 GMT 48.780647 0.309858 30,550 58 414 512
2018-06-13 08:35:20 GMT 48.777557 0.302617 30,525 58 414 448
2018-06-13 08:35:17 GMT 48.775013 0.296125 30,500 58 412 512
2018-06-13 08:35:14 GMT 48.771240 0.286983 30,475 58 411 512
2018-06-13 08:35:10 GMT 48.767624 0.278039 30,450 58 410 576
2018-06-13 08:35:07 GMT 48.765198 0.272264 30,425 57 409 576
2018-06-13 08:35:04 GMT 48.762119 0.264828 30,375 58 407 576
2018-06-13 08:35:00 GMT 48.758011 0.254869 30,350 58 406 576
2018-06-13 08:34:57 GMT 48.754253 0.245602 30,250 58 404 704
2018-06-13 08:34:52 GMT 48.749588 0.234657 30,250 58 403 704
2018-06-13 08:34:49 GMT 48.747345 0.228811 30,150 58 402 896
2018-06-13 08:34:46 GMT 48.743591 0.219727 30,075 58 402 832
2018-06-13 08:34:40 GMT 48.737595 0.204937 30,100 58 401 1024
2018-06-13 08:34:36 GMT 48.732929 0.193923 30,000 57 401 1344
2018-06-13 08:34:33 GMT 48.730183 0.187274 29,950 57 401 1408
2018-06-13 08:34:28 GMT 48.726425 0.178317 29,850 57 400 1472
2018-06-13 08:34:25 GMT 48.722992 0.169936 29,775 57 401 1408
2018-06-13 08:34:22 GMT 48.720062 0.163246 29,700 57 401 1472
2018-06-13 08:34:19 GMT 48.716125 0.153809 29,550 57 402 1472
2018-06-13 08:34:14 GMT 48.712189 0.144160 29,500 57 402 1536
2018-06-13 08:34:10 GMT 48.708397 0.135088 29,400 57 402 1536
2018-06-13 08:34:07 GMT 48.706009 0.128878 29,275 57 404 1152
2018-06-13 08:34:04 GMT 48.701366 0.117886 29,200 57 403 1600
2018-06-13 08:34:01 GMT 48.698948 0.112248 29,100 57 404 1344
2018-06-13 08:33:57 GMT 48.695526 0.104159 29,025 57 402 1152
2018-06-13 08:33:54 GMT 48.692413 0.096623 29,025 57 404 1152
2018-06-13 08:33:49 GMT 48.687973 0.086130 28,900 57 403 1152
2018-06-13 08:33:46 GMT 48.684357 0.077538 28,800 57 402 1152
2018-06-13 08:33:42 GMT 48.680931 0.069315 28,775 57 402 1152
2018-06-13 08:33:39 GMT 48.677673 0.061411 28,675 57 402 1024
2018-06-13 08:33:36 GMT 48.674229 0.053342 28,675 57 401 960
2018-06-13 08:33:33 GMT 48.671295 0.046692 28,600 57 400 1024
2018-06-13 08:33:30 GMT 48.668381 0.039649 27,975 57 398 1152
2018-06-13 08:33:26 GMT 48.664948 0.031198 28,450 57 400 1152
2018-06-13 08:33:23 GMT 48.662064 0.024508 28,450 57 400 1152
2018-06-13 08:33:20 GMT 48.658772 0.016479 28,400 57 399 1216
2018-06-13 08:33:16 GMT 48.654510 0.006690 28,325 57 399 1280
2018-06-13 08:33:12 GMT 48.650394 -0.003253 28,225 57 399 1280
2018-06-13 08:33:07 GMT 48.645554 -0.014600 28,100 57 399 1152
2018-06-13 08:33:04 GMT 48.642807 -0.021105 28,050 57 399 1152
2018-06-13 08:33:01 GMT 48.639908 -0.028170 27,975 57 398 1152
2018-06-13 08:32:58 GMT 48.636795 -0.035706 27,925 58 398 1088
2018-06-13 08:32:54 GMT 48.632706 -0.045680 27,825 57 397 1088
2018-06-13 08:32:51 GMT 48.629791 -0.052537 27,825 57 397 1088
2018-06-13 08:32:48 GMT 48.626839 -0.059774 27,725 57 397 1088
2018-06-13 08:32:45 GMT 48.623932 -0.066622 27,675 57 396 1024
2018-06-13 08:32:42 GMT 48.621552 -0.072327 27,675 57 396 1024
2018-06-13 08:32:39 GMT 48.617760 -0.081241 27,600 57 395 1088
2018-06-13 08:32:35 GMT 48.613106 -0.092372 27,375 57 393 1088
2018-06-13 08:32:30 GMT 48.608822 -0.102708 27,425 57 394 1152
2018-06-13 08:32:27 GMT 48.606960 -0.107334 27,400 57 394 1088
2018-06-13 08:32:24 GMT 48.604019 -0.114159 27,325 57 394 1088
2018-06-13 08:32:21 GMT 48.601093 -0.121211 27,200 57 393 1088
2018-06-13 08:32:18 GMT 48.597839 -0.129089 27,225 57 392 1216
2018-06-13 08:32:15 GMT 48.594772 -0.136484 27,125 57 392 1280
2018-06-13 08:32:12 GMT 48.591831 -0.143545 27,100 57 390 1344
2018-06-13 08:32:08 GMT 48.588058 -0.152797 27,000 57 390 1216
2018-06-13 08:32:05 GMT 48.585827 -0.158290 26,925 57 390 1280
2018-06-13 08:32:01 GMT 48.581360 -0.168739 26,875 57 390 1280
2018-06-13 08:31:57 GMT 48.577606 -0.178035 26,750 58 390 1280
2018-06-13 08:31:54 GMT 48.574654 -0.185105 26,725 58 390 1280
2018-06-13 08:31:51 GMT 48.571766 -0.192478 26,650 58 389 1216
2018-06-13 08:31:48 GMT 48.569366 -0.198317 26,600 58 389 1216
2018-06-13 08:31:45 GMT 48.566254 -0.205642 26,525 58 389 1216
2018-06-13 08:31:42 GMT 48.563690 -0.212191 26,425 58 387 1216
2018-06-13 08:31:38 GMT 48.559757 -0.221967 26,375 58 387 1216
2018-06-13 08:31:35 GMT 48.557327 -0.227825 26,325 58 387 1216
2018-06-13 08:31:32 GMT 48.554401 -0.234833 26,275 58 386 1280
2018-06-13 08:31:29 GMT 48.552017 -0.240713 26,225 58 386 1280
2018-06-13 08:31:26 GMT 48.547699 -0.251312 26,100 58 386 1280
2018-06-13 08:31:23 GMT 48.545139 -0.257673 26,050 58 385 1216
2018-06-13 08:31:20 GMT 48.542068 -0.265045 26,000 58 385 1216
2018-06-13 08:31:15 GMT 48.538109 -0.275164 25,900 58 385 1216
2018-06-13 08:31:12 GMT 48.534485 -0.283602 25,825 58 384 1216
2018-06-13 08:31:08 GMT 48.531921 -0.290152 25,700 58 379 1344
2018-06-13 08:31:04 GMT 48.527962 -0.299739 25,675 58 383 1280
2018-06-13 08:30:59 GMT 48.522491 -0.312617 25,550 57 382 1344
2018-06-13 08:30:56 GMT 48.520420 -0.317736 25,425 58 381 1408
2018-06-13 08:30:53 GMT 48.518185 -0.323085 25,450 58 381 1408
2018-06-13 08:30:50 GMT 48.515121 -0.330646 25,375 58 381 1408
2018-06-13 08:30:47 GMT 48.512375 -0.336984 25,300 58 381 1408
2018-06-13 08:30:43 GMT 48.508392 -0.346985 25,175 60 377 1408
2018-06-13 08:30:40 GMT 48.505150 -0.354670 25,100 58 381 1408
2018-06-13 08:30:36 GMT 48.499985 -0.367175 24,975 58 380 1408
2018-06-13 08:30:32 GMT 48.498447 -0.370789 24,750 57 378 1408
2018-06-13 08:30:29 GMT 48.495346 -0.378394 24,875 58 379 1408
2018-06-13 08:30:25 GMT 48.490719 -0.389726 24,750 57 379 1344
2018-06-13 08:30:22 GMT 48.488483 -0.395002 24,700 57 378 1408
2018-06-13 08:30:19 GMT 48.485413 -0.402085 24,625 57 378 1408
2018-06-13 08:30:14 GMT 48.481476 -0.411353 24,525 60 377 1472
2018-06-13 08:30:11 GMT 48.478180 -0.419382 24,450 58 377 1408
2018-06-13 08:30:08 GMT 48.475777 -0.425214 24,375 59 377 1472
2018-06-13 08:30:02 GMT 48.470123 -0.440157 24,175 60 377 1408
2018-06-13 08:29:58 GMT 48.466873 -0.449454 24,125 61 376 1408
2018-06-13 08:29:52 GMT 48.462555 -0.461137 23,950 61 376 1344
2018-06-13 08:29:49 GMT 48.459667 -0.469376 23,950 61 376 1344
2018-06-13 08:29:46 GMT 48.457760 -0.474870 23,875 61 375 1344
2018-06-13 08:29:42 GMT 48.454330 -0.484455 23,700 61 374 1344
2018-06-13 08:29:38 GMT 48.451401 -0.492695 23,700 61 374 1344
2018-06-13 08:29:35 GMT 48.449020 -0.499033 23,650 61 373 1344
2018-06-13 08:29:30 GMT 48.444397 -0.511921 23,525 61 373 1408
2018-06-13 08:29:25 GMT 48.440071 -0.524308 23,400 61 372 1408
2018-06-13 08:29:21 GMT 48.436813 -0.533343 23,300 61 371 1472
2018-06-13 08:29:15 GMT 48.432201 -0.546064 23,175 61 370 1408
2018-06-13 08:29:11 GMT 48.429291 -0.554669 23,025 61 369 1408
2018-06-13 08:29:08 GMT 48.426708 -0.561531 23,000 61 369 1472
2018-06-13 08:29:05 GMT 48.424118 -0.569106 22,925 61 368 1472
2018-06-13 08:29:01 GMT 48.420006 -0.580396 22,800 61 368 1472
2018-06-13 08:28:55 GMT 48.415375 -0.593473 22,650 61 367 1536
2018-06-13 08:28:51 GMT 48.412262 -0.602417 22,550 61 366 1472
2018-06-13 08:28:48 GMT 48.410370 -0.607356 22,500 61 366 1472
2018-06-13 08:28:43 GMT 48.405949 -0.619860 22,325 61 364 1600
2018-06-13 08:28:40 GMT 48.403519 -0.626573 22,275 61 364 1600
2018-06-13 08:28:32 GMT 48.396835 -0.645095 22,050 61 364 1600
2018-06-13 08:28:28 GMT 48.394958 -0.650447 22,000 61 362 1600
2018-06-13 08:28:20 GMT 48.388229 -0.669180 21,650 61 362 1664
2018-06-13 08:28:17 GMT 48.384811 -0.678623 21,650 61 362 1664
2018-06-13 08:28:13 GMT 48.381912 -0.686857 21,525 61 362 1664
2018-06-13 08:28:08 GMT 48.377785 -0.697993 21,400 61 361 1600
2018-06-13 08:28:02 GMT 48.373642 -0.709486 21,275 61 360 1472
2018-06-13 08:27:59 GMT 48.371429 -0.715872 21,150 61 359 1472
2018-06-13 08:27:56 GMT 48.369186 -0.721999 21,100 61 357 1408
2018-06-13 08:27:52 GMT 48.365074 -0.733193 21,000 61 357 1408
2018-06-13 08:27:48 GMT 48.362137 -0.741225 20,925 61 356 1664
2018-06-13 08:27:45 GMT 48.360260 -0.746577 20,850 61 356 1536
2018-06-13 08:27:39 GMT 48.355637 -0.759606 20,650 61 356 1792
2018-06-13 08:27:36 GMT 48.353210 -0.766649 20,600 61 355 1920
2018-06-13 08:27:30 GMT 48.348923 -0.778367 20,350 61 355 1792
2018-06-13 08:27:27 GMT 48.346344 -0.785734 20,325 62 355 1728
2018-06-13 08:27:24 GMT 48.344467 -0.791016 20,250 62 355 1728
2018-06-13 08:27:18 GMT 48.339661 -0.804960 20,075 62 354 1600
2018-06-13 08:27:14 GMT 48.336044 -0.815383 19,950 62 353 1472
2018-06-13 08:27:09 GMT 48.333141 -0.823685 19,775 61 351 1536
2018-06-13 08:27:06 GMT 48.330395 -0.831347 19,775 62 352 1536
2018-06-13 08:27:03 GMT 48.328674 -0.836017 19,375 65 350 1408
2018-06-13 08:27:00 GMT 48.325226 -0.846164 19,575 69 350 1408
2018-06-13 08:26:56 GMT 48.322853 -0.854042 19,525 66 350 1472
2018-06-13 08:26:52 GMT 48.320114 -0.864328 19,400 69 351 1408
2018-06-13 08:26:49 GMT 48.319061 -0.868976 19,375 71 350 1280
2018-06-13 08:26:46 GMT 48.317684 -0.876015 19,250 74 350 1280
2018-06-13 08:26:42 GMT 48.316132 -0.884963 19,200 76 349 1600
2018-06-13 08:26:39 GMT 48.314438 -0.895245 18,900 76 349 1600
2018-06-13 08:26:36 GMT 48.314098 -0.897626 18,625 76 347 1728
2018-06-13 08:26:33 GMT 48.312698 -0.905527 18,900 76 348 1664
2018-06-13 08:26:30 GMT 48.311508 -0.913062 18,850 75 347 1792
2018-06-13 08:26:26 GMT 48.310143 -0.921189 18,700 75 346 1792
2018-06-13 08:26:23 GMT 48.308605 -0.930441 18,675 75 346 1792
2018-06-13 08:26:17 GMT 48.306519 -0.942993 18,450 75 345 1792
2018-06-13 08:26:14 GMT 48.305161 -0.950823 18,400 75 345 1856
2018-06-13 08:26:11 GMT 48.304325 -0.956533 18,225 75 345 1792
2018-06-13 08:26:08 GMT 48.302582 -0.966163 18,225 75 345 1792
2018-06-13 08:26:04 GMT 48.301025 -0.975389 18,100 76 344 1792
2018-06-13 08:26:01 GMT 48.300201 -0.980882 18,025 76 344 1792
2018-06-13 08:25:58 GMT 48.298832 -0.989854 17,900 76 343 1792
2018-06-13 08:25:54 GMT 48.297249 -0.999105 17,775 76 343 1856
2018-06-13 08:25:51 GMT 48.296085 -1.006478 17,700 76 343 1856
2018-06-13 08:25:48 GMT 48.295200 -1.012115 17,425 76 343 1920
2018-06-13 08:25:43 GMT 48.293152 -1.024475 17,425 76 343 1792
2018-06-13 08:25:38 GMT 48.291412 -1.035673 17,300 76 342 1600
2018-06-13 08:25:34 GMT 48.290405 -1.041677 17,150 76 342 1728
2018-06-13 08:25:30 GMT 48.288849 -1.051307 17,075 76 340 1664
2018-06-13 08:25:25 GMT 48.286636 -1.066541 16,800 76 339 1664
2018-06-13 08:25:20 GMT 48.285233 -1.075111 16,825 76 339 1664
2018-06-13 08:25:16 GMT 48.283859 -1.083351 16,725 76 338 1664
2018-06-13 08:25:13 GMT 48.282490 -1.092128 16,600 76 338 1664
2018-06-13 08:25:10 GMT 48.281654 -1.097621 16,325 76 337 1792
2018-06-13 08:25:07 GMT 48.280426 -1.105182 16,450 76 337 1920
2018-06-13 08:25:02 GMT 48.278397 -1.118365 16,250 76 336 2240
2018-06-13 08:24:58 GMT 48.277184 -1.125810 16,125 76 337 2240
2018-06-13 08:24:54 GMT 48.275986 -1.133352 16,000 76 337 2304
2018-06-13 08:24:51 GMT 48.274765 -1.141205 15,800 76 338 2176
2018-06-13 08:24:48 GMT 48.273926 -1.146553 15,775 76 338 2112
2018-06-13 08:24:41 GMT 48.270996 -1.164199 15,475 75 337 1856
2018-06-13 08:24:38 GMT 48.269783 -1.171128 15,425 75 337 1856
2018-06-13 08:24:33 GMT 48.267921 -1.182114 15,275 76 336 1856
2018-06-13 08:24:30 GMT 48.266895 -1.189270 15,175 76 336 1920
2018-06-13 08:24:27 GMT 48.265869 -1.195115 15,100 76 336 1920
2018-06-13 08:24:23 GMT 48.264313 -1.205116 14,950 76 335 1984
2018-06-13 08:24:20 GMT 48.263126 -1.211965 14,825 76 334 2048
2018-06-13 08:24:17 GMT 48.262070 -1.218496 14,750 76 334 2048
2018-06-13 08:24:12 GMT 48.260517 -1.228084 14,625 76 334 1920
2018-06-13 08:24:07 GMT 48.258316 -1.242018 14,425 76 333 1984
2018-06-13 08:24:02 GMT 48.256561 -1.252297 14,275 76 333 1920
2018-06-13 08:23:59 GMT 48.255539 -1.258657 14,075 76 332 1920
2018-06-13 08:23:54 GMT 48.253677 -1.270294 14,025 76 331 1920
2018-06-13 08:23:51 GMT 48.252640 -1.276809 13,925 76 331 1984
2018-06-13 08:23:48 GMT 48.251770 -1.282161 13,825 76 331 1920
2018-06-13 08:23:45 GMT 48.250214 -1.291105 13,700 76 330 1856
2018-06-13 08:23:39 GMT 48.248180 -1.304121 13,525 76 328 1856
2018-06-13 08:23:36 GMT 48.247482 -1.308457 13,475 76 328 1792
2018-06-13 08:23:33 GMT 48.246460 -1.315120 13,375 77 328 1792
2018-06-13 08:23:30 GMT 48.245438 -1.321829 13,275 77 325 1920
2018-06-13 08:23:26 GMT 48.244038 -1.331442 12,900 77 325 1920
2018-06-13 08:23:23 GMT 48.242523 -1.341529 13,000 77 325 1920
2018-06-13 08:23:20 GMT 48.242176 -1.343801 12,975 77 324 1920
2018-06-13 08:23:16 GMT 48.240269 -1.356161 12,800 77 323 1792
2018-06-13 08:23:12 GMT 48.239059 -1.364907 12,675 77 322 1728
2018-06-13 08:23:08 GMT 48.238220 -1.370038 12,500 77 320 1792
2018-06-13 08:23:05 GMT 48.236847 -1.379136 12,475 77 320 1856
2018-06-13 08:23:01 GMT 48.235474 -1.388253 12,350 77 319 1920
2018-06-13 08:22:57 GMT 48.234077 -1.396854 12,225 77 318 1984
2018-06-13 08:22:53 GMT 48.233047 -1.404067 12,100 77 317 1984
2018-06-13 08:22:50 GMT 48.232040 -1.410898 12,000 77 316 2112
2018-06-13 08:22:46 GMT 48.230850 -1.418645 11,875 77 316 2048
2018-06-13 08:22:42 GMT 48.229614 -1.427237 11,675 77 314 2048
2018-06-13 08:22:39 GMT 48.228424 -1.434772 11,600 77 314 2048
2018-06-13 08:22:35 GMT 48.227417 -1.440758 11,525 76 314 2112
2018-06-13 08:22:32 GMT 48.226349 -1.447955 11,400 76 313 1920
2018-06-13 08:22:29 GMT 48.225494 -1.453505 11,300 76 309 1792
2018-06-13 08:22:25 GMT 48.224121 -1.461886 11,200 76 311 1920
2018-06-13 08:22:21 GMT 48.222610 -1.471816 11,025 76 309 1792
2018-06-13 08:22:18 GMT 48.221741 -1.477155 10,450 77 294 1472
2018-06-13 08:22:15 GMT 48.220551 -1.484211 10,650 76 305 1856
2018-06-13 08:22:11 GMT 48.219315 -1.491746 10,750 76 305 1856
2018-06-13 08:22:05 GMT 48.217274 -1.505127 10,550 76 302 1664
2018-06-13 08:22:00 GMT 48.215561 -1.516325 10,400 77 299 1344
2018-06-13 08:21:53 GMT 48.213684 -1.528297 10,275 77 296 1408
2018-06-13 08:21:48 GMT 48.212105 -1.538953 10,125 77 293 1536
2018-06-13 08:21:44 GMT 48.210567 -1.548422 10,000 77 290 2112
2018-06-13 08:21:41 GMT 48.210243 -1.551530 9,925 77 290 2368
2018-06-13 08:21:38 GMT 48.209217 -1.558541 9,450 78 289 2816
2018-06-13 08:21:32 GMT 48.207321 -1.570904 9,575 78 289 2240
2018-06-13 08:21:26 GMT 48.205959 -1.581381 8,825 78 289 2688
2018-06-13 08:21:21 GMT 48.204239 -1.593018 9,100 78 289 2816
2018-06-13 08:21:18 GMT 48.203724 -1.596993 8,925 78 290 2816
2018-06-13 08:21:15 GMT 48.202835 -1.603018 8,875 78 290 2880
2018-06-13 08:21:10 GMT 48.201645 -1.612455 8,625 77 291 2944
2018-06-13 08:21:06 GMT 48.200272 -1.621892 7,950 77 292 2432
2018-06-13 08:21:02 GMT 48.199081 -1.629780 8,250 77 292 2240
2018-06-13 08:20:59 GMT 48.198212 -1.634568 8,175 76 291 2176
2018-06-13 08:20:55 GMT 48.197208 -1.641806 7,925 67 276 0
2018-06-13 08:20:52 GMT 48.195995 -1.648817 7,925 75 288 1920
2018-06-13 08:20:47 GMT 48.194275 -1.658068 7,775 72 284 1920
2018-06-13 08:20:39 GMT 48.190319 -1.674259 7,450 66 280 2304
2018-06-13 08:20:36 GMT 48.189480 -1.677005 7,400 66 280 2304
2018-06-13 08:20:31 GMT 48.186733 -1.686257 7,200 66 279 2304
2018-06-13 08:20:26 GMT 48.183975 -1.695838 7,000 67 277 2240
2018-06-13 08:20:21 GMT 48.181564 -1.704616 6,800 67 276 2368
2018-06-13 08:20:15 GMT 48.178822 -1.714590 6,575 67 276 2496
2018-06-13 08:20:10 GMT 48.176399 -1.722974 6,375 67 275 2496
2018-06-13 08:20:04 GMT 48.173492 -1.734009 6,125 67 274 2432
2018-06-13 08:20:00 GMT 48.171417 -1.741333 5,925 67 273 2496
2018-06-13 08:19:54 GMT 48.168533 -1.751813 5,700 67 273 2496
2018-06-13 08:19:50 GMT 48.166298 -1.759403 5,525 66 271 2304
2018-06-13 08:19:43 GMT 48.163010 -1.770700 5,275 66 269 2048
2018-06-13 08:19:40 GMT 48.160992 -1.777906 5,150 65 266 1920
2018-06-13 08:19:33 GMT 48.157871 -1.787884 4,975 64 261 1408
2018-06-13 08:19:28 GMT 48.154953 -1.796608 4,850 63 258 1216
2018-06-13 08:19:22 GMT 48.152023 -1.805397 4,725 61 249 1216
2018-06-13 08:19:18 GMT 48.149826 -1.811234 4,650 59 245 1216
2018-06-13 08:19:14 GMT 48.147396 -1.817251 4,550 55 237 1408
2018-06-13 08:19:11 GMT 48.145706 -1.820847 4,500 53 236 1344
2018-06-13 08:19:07 GMT 48.142960 -1.825790 4,400 47 230 1216
2018-06-13 08:19:00 GMT 48.137436 -1.832674 4,250 33 220 1280
2018-06-13 08:18:57 GMT 48.134720 -1.834923 4,200 27 216 1216
2018-06-13 08:18:50 GMT 48.128033 -1.838661 4,050 16 206 1408
2018-06-13 08:18:47 GMT 48.125244 -1.839867 3,975 14 202 1408
2018-06-13 08:18:37 GMT 48.116161 -1.842816 3,725 8 192 1536
2018-06-13 08:18:27 GMT 48.107224 -1.843309 3,425 353 181 1728
2018-06-13 08:18:19 GMT 48.101212 -1.840897 3,200 336 178 2240
2018-06-13 08:18:16 GMT 48.099152 -1.839386 3,100 328 178 2368
2018-06-13 08:18:06 GMT 48.093349 -1.830280 2,675 300 183 2112
2018-06-13 08:17:55 GMT 48.090603 -1.817885 2,375 281 180 1920
2018-06-13 08:17:45 GMT 48.089035 -1.805054 2,075 282 173 1088
2018-06-13 08:17:35 GMT 48.087482 -1.793518 1,900 281 159 1344

Making use of Plane Finder data

You are free to use the raw flight data, aircraft information and images provided in this report for your own purposes provided the data is correctly attributed to Plane Finder. We ask that you please credit Plane Finder and link to planefinder.net in close proximity to the content.

Optionally one of the following logos (no smaller then 150x24px) can be used and must link to planefinder.net

Embedding the Plane Finder map

You are welcome to embed the Plane Finder playback map on your website to offer visitors a more interactive experience. We suggest using the following HTML code:

<iframe src="//planefinder.net/data/report/AF1030-9A-BTE-7700-squawk-2018-06-13/map" width="800" height="600" seamless="seamless"></iframe>

Where our data comes from

Plane Finder has a global network of data feeds and antenna radars that receive data broadcast directly from aircraft. The primary technologies used are ADS-B and MLAT. We also show feeds from the FAA and a FLARM glider feed.

Click here to find out more about the Plane Finder network.

How we collect our data